WetterOnline ( https://www.wetteronline.at )

Wetter aktuell Norderney

Aktuelles Wetter: Emden (5m)

6-stündlich | Neueste Meldungen
Ortszeit Temperatur Wetter
Mi, 24.07. 2:00 17.2° C bedeckt
Di, 23.07. 20:00 19.2° C wolkig
Di, 23.07. 14:00 22.6° C wolkig
Di, 23.07. 8:00 19.0° C bewölkt
Di, 23.07. 2:00 18.8° C bewölkt
Mo, 22.07. 20:00 21.3° C -
Mo, 22.07. 8:00 17.0° C wolkig
Mo, 22.07. 2:00 18.2° C leichter Regen
Ortszeit Temperatur Wetter
Mi, 24.07. 4:10 15.4° C leicht bewölkt
Mi, 24.07. 4:00 15.6° C leicht bewölkt
Mi, 24.07. 3:50 15.6° C leicht bewölkt
Mi, 24.07. 3:40 15.7° C wolkig
Mi, 24.07. 3:30 15.8° C wolkig
Mi, 24.07. 3:20 15.8° C wolkig
Mi, 24.07. 3:00 16.1° C wolkig
Mi, 24.07. 2:30 16.6° C wolkig
Mi, 24.07. 2:00 17.2° C bedeckt
Mi, 24.07. 1:30 16.5° C leicht bewölkt
Mi, 24.07. 1:00 16.8° C leicht bewölkt
Mi, 24.07. 0:30 17.4° C bedeckt
Ortszeit Relative Feuchte Sichtweite
Mi, 24.07. 2:00 89% 35 km
Di, 23.07. 20:00 79% 60 km
Di, 23.07. 14:00 71% 30 km
Di, 23.07. 8:00 84% 30 km
Di, 23.07. 2:00 84% 29 km
Mo, 22.07. 20:00 66% -
Mo, 22.07. 8:00 84% 45 km
Mo, 22.07. 2:00 95% 5.0 km
Ortszeit Relative Feuchte Sichtweite
Mi, 24.07. 4:10 85% -
Mi, 24.07. 4:00 86% 45 km
Mi, 24.07. 3:50 86% -
Mi, 24.07. 3:40 87% -
Mi, 24.07. 3:30 87% 40 km
Mi, 24.07. 3:20 87% -
Mi, 24.07. 3:00 86% 45 km
Mi, 24.07. 2:30 86% 45 km
Mi, 24.07. 2:00 89% 35 km
Mi, 24.07. 1:30 92% 21 km
Mi, 24.07. 1:00 90% 28 km
Mi, 24.07. 0:30 87% 30 km
Ortszeit Niederschlagsmenge Niederschlagsart
Mi, 24.07. 2:00 0.1 l/m2 in 6 Std. Regen
Di, 23.07. 20:00 0.8 l/m2 in 12 Std. Regen
Di, 23.07. 14:00 0.8 l/m2 in 6 Std. Regen
Di, 23.07. 8:00 0.1 l/m2 in 12 Std. Regen
Di, 23.07. 2:00 0.1 l/m2 in 6 Std. Regen
Mo, 22.07. 20:00 0.0 l/m2 in 12 Std. -
Mo, 22.07. 8:00 6 l/m2 in 12 Std. Regen
Mo, 22.07. 2:00 5 l/m2 in 6 Std. Regen
Ortszeit Niederschlagsmenge Niederschlagsart
Mi, 24.07. 4:10 keine Meldung -
Mi, 24.07. 4:00 0.0 l/m2 in 1 Std. -
Mi, 24.07. 3:50 keine Meldung -
Mi, 24.07. 3:40 keine Meldung -
Mi, 24.07. 3:30 0.0 l/m2 in 30 Min -
Mi, 24.07. 3:20 keine Meldung -
Mi, 24.07. 3:00 0.0 l/m2 in 1 Std. -
Mi, 24.07. 2:30 0.0 l/m2 in 30 Min -
Mi, 24.07. 2:00 <0.05 l/m2 in 1 Std. Regen
Mi, 24.07. 1:30 0.0 l/m2 in 30 Min -
Mi, 24.07. 1:00 0.0 l/m2 in 1 Std. -
Mi, 24.07. 0:30 0.0 l/m2 in 30 Min -
Ortszeit Stärke Spitze Richtung
km/h Bft. km/h Grad Sektor
Mi, 24.07. 2:00 11 2 31 330° NW
Di, 23.07. 20:00 18 3 32 310° NW
Di, 23.07. 14:00 9 2 28 270° W
Di, 23.07. 8:00 11 2 25 210° SW
Di, 23.07. 2:00 11 2 25 160° S
Mo, 22.07. 20:00 11 2 25 210° SW
Mo, 22.07. 8:00 13 3 26 270° W
Mo, 22.07. 2:00 18 3 29 270° W
Ortszeit Stärke Spitze Richtung
km/h Bft. km/h Grad Sektor
Mi, 24.07. 4:10 7 2 - 310° NW
Mi, 24.07. 4:00 7 2 14 310° NW
Mi, 24.07. 3:50 7 2 - 310° NW
Mi, 24.07. 3:40 7 2 - 310° NW
Mi, 24.07. 3:30 7 2 14 310° NW
Mi, 24.07. 3:20 7 2 - 310° NW
Mi, 24.07. 3:00 11 2 20 330° NW
Mi, 24.07. 2:30 11 2 18 320° NW
Mi, 24.07. 2:00 11 2 20 330° NW
Mi, 24.07. 1:30 7 2 11 300° NW
Mi, 24.07. 1:00 7 2 11 290° W
Mi, 24.07. 0:30 7 2 11 290° W
Ortszeit Untergrenze Bedeckung Gattung
total tief tief mittel hoch
Mi, 24.07. 2:00 540 m 8/8 8/8 - - -
Di, 23.07. 20:00 510 m 5/8 5/8 - - -
Di, 23.07. 14:00 570 m 5/8 5/8 - - -
Di, 23.07. 8:00 750 m 7/8 7/8 - - -
Di, 23.07. 2:00 1140 m 7/8 7/8 - - -
Mo, 22.07. 20:00 - - - - - -
Mo, 22.07. 8:00 480 m 5/8 5/8 - - -
Mo, 22.07. 2:00 210 m 7/8 7/8 - - -
Ortszeit Bedeckungsgrad in Achtel und Wolkenuntergrenze
Mi, 24.07. 4:10 2
Mi, 24.07. 4:00 3(600m) 3(750m)
Mi, 24.07. 3:50 3(600m) 3(750m)
Mi, 24.07. 3:40 5
Mi, 24.07. 3:30 5(570m)
Mi, 24.07. 3:20 5(570m)
Mi, 24.07. 3:00 1(630m) 5(1170m)
Mi, 24.07. 2:30 1(1020m) 5(1290m) 5(2100m)
Mi, 24.07. 2:00 2(540m) 6(960m) 8(1290m)
Mi, 24.07. 1:30 1(450m) 3(2100m)
Mi, 24.07. 1:00 1(510m) 3(2100m)
Mi, 24.07. 0:30 8(2100m)
Ortszeit Luftdruck NN (hPa) Tendenz (hPa in 3 Std.)
Mi, 24.07. 2:00 1018 + 0,7
Di, 23.07. 20:00 1016 + 1,2
Di, 23.07. 14:00 1014 - 0,4
Di, 23.07. 8:00 1014 - 0,2
Di, 23.07. 2:00 1015 - 1,1
Mo, 22.07. 20:00 1016 - 0,2
Mo, 22.07. 8:00 1013 + 1,6
Mo, 22.07. 2:00 1011 + 1,1
Ortszeit Luftdruck NN (hPa) Tendenz (hPa in 3 Std.)
Mi, 24.07. 4:10 1018 keine Meldung
Mi, 24.07. 4:00 1018 + 0,8
Mi, 24.07. 3:50 1018 keine Meldung
Mi, 24.07. 3:40 1018 keine Meldung
Mi, 24.07. 3:30 1018 + 1,0
Mi, 24.07. 3:20 1018 keine Meldung
Mi, 24.07. 3:00 1018 + 1,0
Mi, 24.07. 2:30 1018 + 0,9
Mi, 24.07. 2:00 1018 + 0,7
Mi, 24.07. 1:30 1018 + 0,9
Mi, 24.07. 1:00 1017 + 0,8
Mi, 24.07. 0:30 1017 + 0,6
Ortszeit Schneehöhe (cm)
Mi, 24.07. 2:00 0
Di, 23.07. 20:00 0
Di, 23.07. 14:00 0
Di, 23.07. 8:00 0
Di, 23.07. 2:00 0
Mo, 22.07. 20:00 0
Mo, 22.07. 8:00 0
Mo, 22.07. 2:00 0
Ortszeit Schneehöhe (cm)
Mi, 24.07. 4:10 -
Mi, 24.07. 4:00 0
Mi, 24.07. 3:50 0
Mi, 24.07. 3:40 -
Mi, 24.07. 3:30 0
Mi, 24.07. 3:20 0
Mi, 24.07. 3:00 0
Mi, 24.07. 2:30 0
Mi, 24.07. 2:00 0
Mi, 24.07. 1:30 0
Mi, 24.07. 1:00 0
Mi, 24.07. 0:30 0
Link zu dieser Seite / Seite empfehlen

Das Wetter in ...